MET'MAP v2.0
soon released !

Expected late october,
this new version will be
more efficient, smarter,
and hosted on a brand new
server x3 powerfull...
...and still free !


Not compatible ?
Try the mobile version !

LOG IN : | Subscribe | Disclaimer | Who is Orbifly ? |
ICAO code :

TAF - EDLW Dortmund - 01 Dec 2020 00:14 UTC
Data Sources :     NOAA   


- Airport Elevation : 425 ft
- IATA code : DTM
- No reported NOTAMs.


EDLW - Dortmund

Latest METAR recorded : 2015/08/11 07:50 EDLW 110750Z VRB02KT CAVOK 20/14 Q1018 RMK ATIS J
TAF TAF EDLW
Valid from the 30 at 18:00 until the 01 at 18:00 UTC


301700Z 3018/0118 21013KT 9999 BKN012
BECMG 3018/3021 RA BKN007
PROB30
TEMPO 3019/0101 3000 RADZ BKN004
BECMG 3021/3024 NSW
TEMPO 0101/0110 2000 DZRA BR BKN004
BECMG 0103/0106 24008KT
BECMG 0109/0112 VRB03KT
PROB30
TEMPO 0110/0116 2000 SHRA BR BKN004 BKN020TCU
TEMPO 0116/0118 1400 BR BKN003

Source NOAA


MET'MAP, your aeronautical weather chart ! - Copyright ORBIFLY December 2007

Programming & Development : Alexandra Zaïnal
Co-Developer : Marc-Olivier Méhu
Technical & hardware support : Manuel Goepfert
Concept & Financing : Baudouin d'Aumeries